Time;durP1;ratioP1;P1;durP2;ratioP2;P2;SDS_P1;SDS_P2;PMS_P1;PMS_P2;Temp;Humidity;BMP_temperature;BMP_pressure;BME280_temperature;BME280_humidity;BME280_pressure;Samples;Min_cycle;Max_cycle;Signal;HPM_P1;HPM_P2
2022/07/07 00:02:04;;;;;;;4.90;1.60;;;19.50;59.30;;;;;;5008460;28;20034;-77
2022/07/07 00:04:30;;;;;;;7.28;2.08;;;19.50;59.50;;;;;;5009328;28;20083;-78
2022/07/07 00:06:56;;;;;;;7.07;1.80;;;19.50;59.10;;;;;;5005303;28;20026;-75
2022/07/07 00:09:21;;;;;;;5.50;1.60;;;19.50;59.20;;;;;;5011222;28;20455;-78
2022/07/07 00:11:47;;;;;;;3.95;1.40;;;19.40;59.50;;;;;;5004132;28;20063;-79
2022/07/07 00:14:12;;;;;;;6.15;2.15;;;19.40;59.60;;;;;;5021271;28;20028;-75
2022/07/07 00:16:38;;;;;;;7.20;2.22;;;19.30;58.80;;;;;;5010355;28;20405;-75
2022/07/07 00:19:04;;;;;;;2.30;1.45;;;19.30;59.00;;;;;;5024319;28;20029;-75
2022/07/07 00:21:29;;;;;;;5.32;1.65;;;19.30;59.50;;;;;;5010445;28;20044;-76
2022/07/07 00:23:55;;;;;;;3.00;1.75;;;19.30;59.60;;;;;;4994761;28;20762;-76
2022/07/07 00:26:21;;;;;;;3.05;1.60;;;19.40;59.30;;;;;;5007867;28;20041;-75
2022/07/07 00:28:48;;;;;;;5.88;1.90;;;19.30;60.20;;;;;;5007299;28;20063;-75
2022/07/07 00:31:13;;;;;;;5.63;1.95;;;19.30;60.40;;;;;;5008139;28;20032;-75
2022/07/07 00:33:39;;;;;;;5.35;1.83;;;19.30;60.90;;;;;;4995354;28;20468;-75
2022/07/07 00:36:07;;;;;;;3.72;1.55;;;19.30;61.50;;;;;;5006896;28;20349;-75
2022/07/07 00:38:32;;;;;;;5.53;1.40;;;19.30;61.40;;;;;;5006910;28;20438;-76
2022/07/07 00:40:58;;;;;;;2.03;1.55;;;19.20;60.70;;;;;;5023000;28;20029;-75
2022/07/07 00:43:23;;;;;;;3.03;1.45;;;19.30;61.80;;;;;;5021677;28;20388;-75
2022/07/07 00:45:49;;;;;;;4.50;1.60;;;19.30;61.60;;;;;;4995768;28;20037;-75
2022/07/07 00:48:15;;;;;;;4.13;1.50;;;19.20;60.10;;;;;;5008041;28;20126;-77
2022/07/07 00:50:42;;;;;;;3.05;1.58;;;19.20;62.30;;;;;;5007818;28;20029;-76
2022/07/07 00:53:08;;;;;;;2.90;1.77;;;19.20;62.60;;;;;;5019669;28;20562;-76
2022/07/07 00:55:34;;;;;;;6.07;2.30;;;19.20;61.20;;;;;;5027256;28;20033;-76
2022/07/07 00:57:59;;;;;;;2.85;1.50;;;19.20;62.90;;;;;;4988602;28;20043;-75
2022/07/07 01:00:25;;;;;;;2.45;1.50;;;19.10;62.10;;;;;;5010670;28;20033;-76
2022/07/07 01:02:51;;;;;;;3.90;1.65;;;19.10;62.40;;;;;;5010576;28;20061;-75
2022/07/07 01:05:16;;;;;;;4.43;1.40;;;19.10;62.70;;;;;;5002128;28;20668;-76
2022/07/07 01:07:42;;;;;;;1.65;1.55;;;19.10;62.90;;;;;;5010879;28;20091;-75
2022/07/07 01:10:08;;;;;;;4.30;1.90;;;19.10;62.40;;;;;;5017826;28;20030;-75
2022/07/07 01:12:38;;;;;;;3.75;1.83;;;19.10;63.50;;;;;;5021630;28;20032;-75
2022/07/07 01:15:04;;;;;;;3.25;1.67;;;19.10;64.10;;;;;;5001354;28;20056;-75
2022/07/07 01:17:29;;;;;;;4.32;2.22;;;19.00;63.40;;;;;;5005736;28;20033;-75
2022/07/07 01:19:55;;;;;;;5.45;1.63;;;19.10;65.10;;;;;;5002816;28;20097;-76
2022/07/07 01:22:22;;;;;;;3.78;1.48;;;19.10;64.20;;;;;;5004942;28;20036;-76
2022/07/07 01:24:48;;;;;;;5.90;2.25;;;19.10;65.30;;;;;;5021084;28;20110;-76
2022/07/07 01:27:14;;;;;;;4.15;1.83;;;19.00;64.40;;;;;;5021834;28;20063;-76
2022/07/07 01:29:53;;;;;;;5.75;1.85;;;19.10;64.30;;;;;;5023285;28;20044;-76
2022/07/07 01:32:19;;;;;;;2.92;1.77;;;19.00;64.00;;;;;;5004539;28;20045;-75
2022/07/07 01:34:46;;;;;;;4.10;2.20;;;19.00;65.60;;;;;;5037206;28;20531;-76
2022/07/07 01:37:11;;;;;;;2.97;1.48;;;19.00;65.10;;;;;;5002812;28;20021;-76
2022/07/07 01:39:38;;;;;;;2.08;1.52;;;19.00;65.00;;;;;;4993384;28;20038;-76
2022/07/07 01:42:04;;;;;;;2.42;1.45;;;19.00;65.10;;;;;;4997445;28;20040;-75
2022/07/07 01:44:30;;;;;;;2.83;1.35;;;19.00;65.30;;;;;;5025008;28;20124;-76
2022/07/07 01:46:56;;;;;;;2.15;1.75;;;19.00;65.90;;;;;;5005330;28;20036;-76
2022/07/07 01:49:21;;;;;;;5.25;1.70;;;18.90;64.90;;;;;;5004073;28;20041;-76
2022/07/07 01:51:47;;;;;;;2.60;1.45;;;19.00;65.40;;;;;;5022080;28;20211;-80
2022/07/07 01:54:13;;;;;;;4.72;2.00;;;18.90;65.80;;;;;;5020267;28;20087;-79
2022/07/07 01:56:38;;;;;;;4.43;2.03;;;18.90;66.60;;;;;;5022619;28;20089;-79
2022/07/07 01:59:04;;;;;;;3.95;2.10;;;18.80;66.30;;;;;;5001619;28;20041;-79
2022/07/07 02:01:29;;;;;;;2.33;1.65;;;18.90;67.60;;;;;;5005963;28;20117;-79
2022/07/07 02:03:55;;;;;;;3.15;2.47;;;18.80;67.10;;;;;;5020685;28;20536;-79
2022/07/07 02:06:20;;;;;;;2.70;2.33;;;18.90;68.20;;;;;;5024321;28;20374;-77
2022/07/07 02:08:46;;;;;;;3.45;2.30;;;18.90;68.90;;;;;;5027787;28;20106;-81
2022/07/07 02:11:14;;;;;;;7.60;2.88;;;18.70;69.30;;;;;;5021239;28;20029;-79
2022/07/07 02:13:47;;;;;;;4.10;3.00;;;18.70;69.30;;;;;;5013567;28;20037;-75
2022/07/07 02:16:13;;;;;;;2.28;2.08;;;18.60;68.40;;;;;;5023177;28;20037;-76
2022/07/07 02:18:39;;;;;;;3.47;3.03;;;18.60;69.10;;;;;;5010060;28;20029;-76
2022/07/07 02:21:05;;;;;;;7.70;4.80;;;18.70;69.90;;;;;;5025631;28;20041;-76
2022/07/07 02:23:32;;;;;;;4.55;2.67;;;18.60;69.40;;;;;;4990177;28;20408;-76
2022/07/07 02:25:57;;;;;;;3.20;2.90;;;18.60;68.60;;;;;;5023292;28;20108;-76
2022/07/07 02:28:23;;;;;;;5.50;3.22;;;18.60;69.40;;;;;;5011428;28;20120;-76
2022/07/07 02:30:52;;;;;;;4.38;2.97;;;18.60;69.10;;;;;;4992808;28;20060;-75
2022/07/07 02:33:17;;;;;;;7.75;3.38;;;18.70;69.60;;;;;;5021779;28;20025;-76
2022/07/07 02:35:43;;;;;;;2.85;2.53;;;18.60;69.80;;;;;;5009432;28;20053;-75
2022/07/07 02:38:09;;;;;;;3.67;2.45;;;18.60;69.60;;;;;;5008009;28;20026;-75
2022/07/07 02:40:34;;;;;;;6.20;2.28;;;18.60;70.60;;;;;;5006294;28;20124;-79
2022/07/07 02:43:00;;;;;;;4.28;2.50;;;18.60;70.70;;;;;;5016584;28;20080;-79
2022/07/07 02:45:25;;;;;;;4.43;2.45;;;18.50;69.60;;;;;;5012492;28;20041;-80
2022/07/07 02:47:52;;;;;;;9.40;4.88;;;18.50;71.30;;;;;;5027229;28;20561;-79
2022/07/07 02:50:18;;;;;;;3.92;2.95;;;18.50;71.80;;;;;;5025922;28;20033;-79
2022/07/07 02:52:43;;;;;;;4.22;2.60;;;18.50;71.50;;;;;;5039741;28;20025;-80
2022/07/07 02:55:09;;;;;;;5.88;3.00;;;18.50;71.50;;;;;;5008003;28;20075;-80
2022/07/07 02:57:34;;;;;;;8.32;3.08;;;18.50;72.70;;;;;;5027122;28;20504;-75
2022/07/07 03:00:00;;;;;;;4.35;2.58;;;18.50;72.90;;;;;;5007444;28;20022;-76
2022/07/07 03:02:26;;;;;;;4.90;2.60;;;18.50;71.80;;;;;;5008625;28;20057;-76
2022/07/07 03:04:52;;;;;;;5.57;3.75;;;18.40;73.30;;;;;;5009114;28;20074;-80
2022/07/07 03:07:19;;;;;;;8.57;4.03;;;18.40;72.50;;;;;;5006057;28;20026;-80
2022/07/07 03:09:45;;;;;;;3.05;2.33;;;18.30;73.80;;;;;;5026341;28;20064;-78
2022/07/07 03:12:11;;;;;;;4.55;2.38;;;18.20;73.00;;;;;;5025789;28;20053;-80
2022/07/07 03:14:37;;;;;;;10.85;4.28;;;18.20;73.30;;;;;;5009849;28;20033;-80
2022/07/07 03:17:03;;;;;;;3.08;2.45;;;18.20;73.40;;;;;;5005770;28;20108;-76
2022/07/07 03:19:28;;;;;;;3.67;2.40;;;18.20;73.50;;;;;;5021131;28;20112;-76
2022/07/07 03:21:54;;;;;;;7.20;4.10;;;18.20;73.90;;;;;;5009916;28;20036;-80
2022/07/07 03:24:19;;;;;;;3.30;2.88;;;18.20;74.50;;;;;;5005560;28;20084;-79
2022/07/07 03:26:45;;;;;;;5.95;2.90;;;18.20;74.10;;;;;;5010732;28;20033;-79
2022/07/07 03:29:10;;;;;;;7.55;3.53;;;18.20;74.80;;;;;;5019265;28;20108;-80
2022/07/07 03:31:36;;;;;;;5.07;3.20;;;18.10;75.00;;;;;;5011007;28;20059;-81
2022/07/07 03:34:02;;;;;;;6.68;3.45;;;18.10;75.90;;;;;;5004121;28;20037;-80
2022/07/07 03:36:27;;;;;;;6.05;3.45;;;18.10;76.30;;;;;;5021283;28;20476;-80
2022/07/07 03:38:53;;;;;;;4.20;3.53;;;17.90;76.90;;;;;;5019481;28;20078;-80
2022/07/07 03:41:19;;;;;;;4.63;3.30;;;17.90;77.20;;;;;;5021217;28;20043;-80
2022/07/07 03:43:44;;;;;;;2.97;2.45;;;17.90;78.30;;;;;;4994763;28;20120;-81
2022/07/07 03:46:10;;;;;;;3.97;2.90;;;17.80;78.10;;;;;;5008618;28;20448;-80
2022/07/07 03:48:35;;;;;;;4.05;3.47;;;17.70;79.00;;;;;;5016246;28;20045;-80
2022/07/07 03:51:01;;;;;;;6.00;2.85;;;17.70;79.60;;;;;;5041016;28;20090;-80
2022/07/07 03:53:26;;;;;;;6.70;3.53;;;17.60;78.40;;;;;;5010897;28;20105;-78
2022/07/07 03:55:52;;;;;;;3.80;3.30;;;17.60;77.90;;;;;;5006592;28;20025;-80
2022/07/07 03:58:17;;;;;;;5.25;3.53;;;17.60;78.80;;;;;;5010212;28;20025;-80
2022/07/07 04:00:43;;;;;;;3.97;2.90;;;17.60;79.70;;;;;;5010878;28;20049;-78
2022/07/07 04:03:09;;;;;;;5.05;3.35;;;17.60;79.40;;;;;;5022585;28;20434;-80
2022/07/07 04:05:35;;;;;;;5.70;3.47;;;17.60;80.10;;;;;;5007586;28;20061;-79
2022/07/07 04:08:01;;;;;;;3.25;2.95;;;17.60;81.90;;;;;;4993057;28;20558;-80
2022/07/07 04:10:26;;;;;;;5.28;3.53;;;17.70;82.40;;;;;;5006526;28;20032;-79
2022/07/07 04:12:54;;;;;;;6.53;2.72;;;17.70;82.60;;;;;;5024095;28;20752;-80
2022/07/07 04:15:19;;;;;;;3.15;2.47;;;17.70;81.30;;;;;;5008642;28;20037;-78
2022/07/07 04:17:45;;;;;;;6.45;2.72;;;17.70;83.00;;;;;;5007618;28;20545;-80
2022/07/07 04:20:11;;;;;;;4.70;2.78;;;17.90;82.00;;;;;;5019430;28;20373;-80
2022/07/07 04:22:37;;;;;;;3.83;2.80;;;17.80;83.50;;;;;;5006525;28;20028;-79
2022/07/07 04:25:03;;;;;;;8.23;2.75;;;17.90;84.00;;;;;;4991903;28;20021;-78
2022/07/07 04:27:28;;;;;;;3.60;2.63;;;17.80;84.30;;;;;;5009848;28;20036;-79
2022/07/07 04:29:54;;;;;;;4.95;2.88;;;17.70;85.10;;;;;;5008281;28;20037;-79
2022/07/07 04:32:19;;;;;;;6.30;3.70;;;17.70;85.90;;;;;;5021595;28;20063;-79
2022/07/07 04:34:45;;;;;;;5.22;3.30;;;17.80;85.50;;;;;;5018921;28;20033;-80
2022/07/07 04:37:10;;;;;;;4.53;2.85;;;17.80;85.60;;;;;;5003380;28;20060;-79
2022/07/07 04:39:36;;;;;;;7.85;3.45;;;17.80;87.10;;;;;;5022844;28;20055;-79
2022/07/07 04:42:03;;;;;;;4.03;3.35;;;17.80;87.50;;;;;;5001967;28;20040;-79
2022/07/07 04:44:28;;;;;;;8.23;3.53;;;17.80;87.90;;;;;;5021656;28;20053;-80
2022/07/07 04:46:54;;;;;;;4.40;2.65;;;17.80;89.20;;;;;;5006589;28;20112;-80
2022/07/07 04:49:19;;;;;;;4.40;2.72;;;17.80;89.80;;;;;;5005491;28;20115;-80
2022/07/07 04:51:45;;;;;;;6.88;3.63;;;17.80;90.30;;;;;;5023555;28;20043;-80
2022/07/07 04:54:11;;;;;;;6.85;4.60;;;17.70;90.80;;;;;;5018644;28;20026;-84
2022/07/07 04:56:37;;;;;;;6.40;4.53;;;17.70;92.10;;;;;;5010914;28;20026;-84
2022/07/07 04:59:02;;;;;;;7.10;5.05;;;17.60;92.30;;;;;;5010291;28;20495;-84
2022/07/07 05:01:28;;;;;;;10.75;4.93;;;17.50;91.70;;;;;;5009979;28;20108;-84
2022/07/07 05:03:53;;;;;;;7.75;4.38;;;17.50;92.00;;;;;;5019437;28;20513;-85
2022/07/07 05:06:19;;;;;;;7.68;5.70;;;17.50;93.10;;;;;;5018419;28;20397;-83
2022/07/07 05:08:44;;;;;;;6.10;3.53;;;17.50;94.10;;;;;;5010468;28;20068;-83
2022/07/07 05:11:10;;;;;;;10.25;5.90;;;17.30;92.80;;;;;;5025982;28;20048;-81
2022/07/07 05:13:35;;;;;;;6.28;5.68;;;17.30;93.80;;;;;;5006845;28;20033;-83
2022/07/07 05:16:02;;;;;;;8.32;5.53;;;17.20;95.40;;;;;;5025402;28;20059;-85
2022/07/07 05:18:29;;;;;;;5.78;4.63;;;17.30;94.90;;;;;;5025040;28;20037;-84
2022/07/07 05:20:55;;;;;;;6.30;5.07;;;17.20;96.20;;;;;;5009860;28;20066;-86
2022/07/07 05:23:21;;;;;;;9.30;5.18;;;17.10;97.20;;;;;;5009703;28;20385;-85
2022/07/07 05:25:46;;;;;;;5.80;4.93;;;17.00;97.90;;;;;;5006864;28;20025;-84
2022/07/07 05:28:12;;;;;;;8.15;3.83;;;16.90;98.30;;;;;;5010206;28;20136;-83
2022/07/07 05:30:38;;;;;;;8.88;3.35;;;16.90;98.60;;;;;;4994488;28;20025;-83
2022/07/07 05:33:07;;;;;;;5.32;3.30;;;16.90;98.50;;;;;;4999589;28;20037;-81
2022/07/07 05:35:34;;;;;;;2.92;2.72;;;16.90;99.10;;;;;;5027215;28;20029;-82
2022/07/07 05:37:59;;;;;;;6.68;2.88;;;16.90;98.90;;;;;;5026418;28;20461;-77
2022/07/07 05:40:25;;;;;;;4.47;3.90;;;16.90;99.10;;;;;;5020358;28;20036;-79
2022/07/07 05:42:50;;;;;;;7.97;5.00;;;16.90;98.90;;;;;;4994680;28;20044;-78
2022/07/07 05:45:16;;;;;;;7.82;4.95;;;16.90;98.40;;;;;;5005172;28;20421;-78
2022/07/07 05:47:42;;;;;;;4.10;3.78;;;17.00;99.80;;;;;;5021503;28;20389;-77
2022/07/07 05:50:08;;;;;;;5.45;4.00;;;17.00;99.90;;;;;;5008330;28;20028;-79
2022/07/07 05:52:33;;;;;;;6.93;3.97;;;17.00;99.80;;;;;;5008650;28;20029;-79
2022/07/07 05:54:59;;;;;;;5.10;3.22;;;17.10;99.90;;;;;;4990876;28;20033;-78
2022/07/07 05:57:24;;;;;;;5.40;3.20;;;17.10;99.80;;;;;;5024133;28;20496;-77
2022/07/07 05:59:50;;;;;;;4.75;3.28;;;17.10;99.20;;;;;;5007001;28;20515;-77
2022/07/07 06:02:16;;;;;;;4.90;4.03;;;17.10;99.90;;;;;;5009100;28;20060;-78
2022/07/07 06:04:42;;;;;;;5.78;4.50;;;17.10;99.40;;;;;;4999521;28;20022;-78
2022/07/07 06:07:07;;;;;;;4.95;3.53;;;17.20;99.90;;;;;;5011979;28;20037;-78
2022/07/07 06:09:33;;;;;;;4.18;3.00;;;17.30;99.90;;;;;;5022873;28;20123;-77
2022/07/07 06:11:59;;;;;;;6.55;4.63;;;17.40;99.90;;;;;;5024102;28;20033;-77
2022/07/07 06:14:24;;;;;;;5.90;5.20;;;17.50;99.90;;;;;;5006765;28;20094;-77
2022/07/07 06:16:51;;;;;;;6.43;5.80;;;17.70;99.90;;;;;;5013874;28;20441;-77
2022/07/07 06:19:17;;;;;;;5.38;4.45;;;17.70;99.90;;;;;;5009289;28;20051;-77
2022/07/07 06:21:42;;;;;;;7.85;4.55;;;17.70;99.90;;;;;;4995343;28;20488;-76
2022/07/07 06:24:08;;;;;;;10.88;7.10;;;17.70;99.90;;;;;;5027982;28;20489;-77
2022/07/07 06:26:37;;;;;;;6.15;5.15;;;17.80;99.90;;;;;;5012966;28;20052;-77
2022/07/07 06:29:03;;;;;;;5.78;5.05;;;17.80;99.90;;;;;;4993778;28;20084;-77
2022/07/07 06:31:29;;;;;;;6.97;4.93;;;17.90;99.90;;;;;;5006230;28;20040;-77
2022/07/07 06:33:55;;;;;;;7.15;3.90;;;18.00;99.90;;;;;;5006297;28;20025;-77
2022/07/07 06:36:20;;;;;;;7.07;6.05;;;18.20;99.90;;;;;;5023629;28;20067;-77
2022/07/07 06:38:46;;;;;;;7.25;6.03;;;18.20;99.90;;;;;;5012926;28;20029;-76
2022/07/07 06:41:12;;;;;;;6.00;4.10;;;18.30;99.90;;;;;;5024984;28;20029;-77
2022/07/07 06:43:37;;;;;;;7.28;5.93;;;18.30;99.90;;;;;;5021627;28;20116;-76
2022/07/07 06:46:03;;;;;;;6.53;5.63;;;18.30;99.90;;;;;;5009926;28;20033;-76
2022/07/07 06:48:29;;;;;;;7.22;5.28;;;18.30;99.90;;;;;;5004390;28;20052;-76
2022/07/07 06:50:55;;;;;;;5.93;5.32;;;18.40;99.90;;;;;;5008860;28;20033;-76
2022/07/07 06:53:20;;;;;;;6.63;5.82;;;18.40;99.90;;;;;;5007834;28;20493;-77
2022/07/07 06:55:46;;;;;;;6.18;4.13;;;18.30;99.90;;;;;;5010946;28;20037;-76
2022/07/07 06:58:12;;;;;;;5.78;4.60;;;18.40;99.90;;;;;;5025274;28;20091;-75
2022/07/07 07:00:38;;;;;;;5.22;3.85;;;18.20;99.90;;;;;;4992659;28;20025;-76
2022/07/07 07:03:03;;;;;;;4.47;3.42;;;18.20;99.90;;;;;;5007069;28;20036;-76
2022/07/07 07:05:30;;;;;;;4.68;3.38;;;18.10;99.90;;;;;;5012483;28;20024;-77
2022/07/07 07:07:56;;;;;;;3.53;2.13;;;18.20;99.90;;;;;;4996759;28;20036;-75
2022/07/07 07:10:22;;;;;;;2.92;2.17;;;18.10;99.90;;;;;;5008134;28;20033;-76
2022/07/07 07:12:47;;;;;;;2.85;2.30;;;18.20;99.90;;;;;;5010143;28;20392;-76
2022/07/07 07:15:13;;;;;;;2.63;2.35;;;18.20;99.90;;;;;;5010358;28;20104;-77
2022/07/07 07:17:39;;;;;;;9.65;3.08;;;18.30;99.90;;;;;;5010962;28;20492;-76
2022/07/07 07:20:05;;;;;;;24.70;2.20;;;18.20;99.90;;;;;;5009136;28;20114;-77
2022/07/07 07:22:37;;;;;;;21.92;2.45;;;18.00;99.90;;;;;;5024645;28;20116;-78
2022/07/07 07:25:03;;;;;;;5.47;1.65;;;17.60;99.90;;;;;;4994835;28;20083;-78
2022/07/07 07:27:29;;;;;;;4.95;1.88;;;17.40;99.90;;;;;;5010037;28;20033;-77
2022/07/07 07:29:54;;;;;;;2.15;1.20;;;17.50;99.90;;;;;;4995792;28;20126;-78
2022/07/07 07:32:20;;;;;;;1.73;1.00;;;17.40;99.90;;;;;;5006379;28;20040;-79
2022/07/07 07:34:45;;;;;;;2.58;1.02;;;17.40;99.90;;;;;;5008331;28;20069;-77
2022/07/07 07:37:11;;;;;;;2.65;1.02;;;17.50;99.90;;;;;;4994060;28;20033;-77
2022/07/07 07:39:37;;;;;;;3.08;0.82;;;17.50;99.90;;;;;;4994117;28;20040;-77
2022/07/07 07:42:02;;;;;;;3.63;1.20;;;17.50;99.90;;;;;;4995857;28;20025;-77
2022/07/07 07:47:14;;;;;;;3.67;1.23;;;17.90;99.90;;;;;;5011859;28;20047;-81
2022/07/07 07:49:39;;;;;;;18.60;1.52;;;18.00;99.90;;;;;;4990470;28;20033;-83
2022/07/07 07:52:05;;;;;;;3.55;1.42;;;18.20;99.90;;;;;;5021341;28;20045;-82
2022/07/07 07:54:31;;;;;;;2.08;1.27;;;18.50;99.90;;;;;;5022273;28;20052;-83
2022/07/07 07:56:56;;;;;;;3.10;1.10;;;18.70;99.90;;;;;;4996844;28;20108;-82
2022/07/07 07:59:22;;;;;;;4.38;1.45;;;18.80;99.90;;;;;;4995005;28;20102;-83
2022/07/07 08:01:48;;;;;;;2.20;1.08;;;18.90;99.90;;;;;;5007430;28;20488;-83
2022/07/07 08:04:13;;;;;;;2.15;1.02;;;18.80;99.90;;;;;;5023412;28;20029;-83
2022/07/07 08:06:39;;;;;;;4.15;1.10;;;18.60;99.90;;;;;;5019864;28;20534;-84
2022/07/07 08:09:05;;;;;;;3.65;1.30;;;18.90;99.90;;;;;;5003243;28;20068;-85
2022/07/07 08:11:31;;;;;;;5.30;1.13;;;19.10;99.90;;;;;;4992948;28;20428;-84
2022/07/07 08:13:56;;;;;;;6.38;0.95;;;19.20;99.90;;;;;;5010384;28;20033;-85
2022/07/07 08:16:23;;;;;;;6.70;1.10;;;19.60;99.90;;;;;;5009767;28;20037;-83
2022/07/07 08:18:49;;;;;;;6.07;1.45;;;19.60;99.90;;;;;;5021639;28;20632;-84
2022/07/07 08:21:14;;;;;;;7.13;1.25;;;19.70;99.90;;;;;;5024217;28;20061;-83
2022/07/07 08:23:41;;;;;;;4.45;1.13;;;19.60;99.90;;;;;;5004601;28;20048;-82
2022/07/07 08:26:07;;;;;;;8.02;1.48;;;19.70;99.90;;;;;;5023059;28;20029;-84
2022/07/07 08:28:32;;;;;;;3.83;1.23;;;19.70;99.90;;;;;;5005696;28;20039;-84
2022/07/07 08:30:58;;;;;;;4.95;1.48;;;19.80;99.90;;;;;;5020283;28;20040;-84
2022/07/07 08:33:24;;;;;;;5.85;1.40;;;20.00;99.90;;;;;;4987380;28;20485;-84
2022/07/07 08:35:49;;;;;;;2.05;0.85;;;20.10;99.90;;;;;;5008006;28;20036;-84
2022/07/07 08:38:15;;;;;;;3.63;1.10;;;20.30;99.90;;;;;;5004936;28;20033;-84
2022/07/07 08:40:40;;;;;;;3.20;0.65;;;20.40;99.90;;;;;;5010661;28;20033;-85
2022/07/07 08:43:06;;;;;;;2.00;0.98;;;20.40;99.90;;;;;;5008039;28;20025;-84
2022/07/07 08:45:32;;;;;;;6.25;1.10;;;20.60;99.90;;;;;;5010203;28;20118;-84
2022/07/07 08:47:59;;;;;;;4.57;0.90;;;20.80;99.90;;;;;;5024985;28;20527;-84
2022/07/07 08:50:24;;;;;;;3.33;0.65;;;20.90;99.90;;;;;;5023278;28;20033;-82
2022/07/07 08:52:52;;;;;;;2.22;0.85;;;21.10;99.90;;;;;;5008870;28;20197;-84
2022/07/07 08:55:20;;;;;;;4.43;0.52;;;21.10;99.90;;;;;;5019373;28;20026;-84
2022/07/07 08:57:46;;;;;;;3.25;0.80;;;21.10;99.90;;;;;;5030217;28;20029;-84
2022/07/07 09:00:11;;;;;;;1.73;0.50;;;21.10;99.90;;;;;;5022088;28;20036;-84
2022/07/07 09:02:37;;;;;;;5.55;0.90;;;21.00;99.90;;;;;;5010686;28;20029;-84
2022/07/07 09:05:05;;;;;;;2.35;0.63;;;21.20;99.90;;;;;;5024529;28;20029;-82
2022/07/07 09:07:50;;;;;;;2.10;0.50;;;21.10;99.90;;;;;;4993373;28;20429;-84
2022/07/07 09:10:31;;;;;;;2.87;0.77;;;21.10;99.90;;;;;;5007459;28;20496;-84
2022/07/07 09:12:57;;;;;;;2.10;0.70;;;20.70;99.90;;;;;;5038109;28;20056;-82
2022/07/07 09:15:23;;;;;;;3.65;0.70;;;20.40;99.90;;;;;;5009861;28;20072;-86
2022/07/07 09:17:48;;;;;;;3.65;0.77;;;20.30;99.90;;;;;;4994051;28;20029;-83
2022/07/07 09:20:14;;;;;;;4.82;0.50;;;20.20;99.90;;;;;;5010590;28;20478;-86
2022/07/07 09:22:51;;;;;;;5.72;0.68;;;19.90;99.90;;;;;;5023284;28;20029;-86
2022/07/07 09:25:19;;;;;;;3.42;0.80;;;20.00;99.90;;;;;;5045976;28;20116;-84
2022/07/07 09:27:58;;;;;;;2.05;0.95;;;19.70;99.90;;;;;;5027143;28;20029;-85
2022/07/07 09:30:37;;;;;;;2.65;0.93;;;19.80;99.90;;;;;;5024993;28;20095;-85
2022/07/07 09:33:07;;;;;;;1.58;0.68;;;19.80;99.90;;;;;;5031973;28;20056;-84
2022/07/07 09:38:22;;;;;;;3.45;0.88;;;20.00;99.90;;;;;;5023103;28;20031;-84
2022/07/07 09:41:03;;;;;;;2.83;0.77;;;20.10;99.90;;;;;;5007656;28;20033;-84
2022/07/07 09:43:33;;;;;;;1.77;0.65;;;20.30;99.90;;;;;;5023023;28;20045;-84
2022/07/07 09:46:12;;;;;;;1.58;0.40;;;20.30;99.90;;;;;;4992594;28;20041;-84
2022/07/07 09:48:39;;;;;;;1.17;0.50;;;20.70;99.90;;;;;;5046657;28;20043;-85
2022/07/07 09:51:20;;;;;;;1.35;0.60;;;20.90;99.90;;;;;;5012119;28;20045;-84
2022/07/07 09:54:04;;;;;;;0.88;0.30;;;21.20;99.90;;;;;;5011528;28;20029;-84
2022/07/07 09:56:40;;;;;;;1.17;0.40;;;21.60;99.90;;;;;;5029644;28;20030;-84
2022/07/07 09:59:13;;;;;;;0.95;0.30;;;21.90;99.90;;;;;;5006278;28;20037;-83
2022/07/07 10:01:40;;;;;;;0.80;0.40;;;22.00;99.90;;;;;;4997300;28;20559;-84
2022/07/07 10:04:13;;;;;;;1.52;0.40;;;22.30;99.90;;;;;;5001815;28;20033;-83
2022/07/07 10:06:40;;;;;;;3.03;0.45;;;22.50;99.90;;;;;;5008817;28;20033;-84
2022/07/07 10:09:10;;;;;;;1.83;0.68;;;22.90;99.90;;;;;;5022905;28;20040;-78
2022/07/07 10:11:47;;;;;;;0.77;0.30;;;23.10;99.90;;;;;;5008572;28;20634;-78
2022/07/07 10:14:27;;;;;;;1.13;0.52;;;23.30;99.90;;;;;;4993302;28;20094;-77
2022/07/07 10:16:53;;;;;;;2.33;0.40;;;23.10;99.90;;;;;;5010633;28;20134;-76
2022/07/07 10:19:21;;;;;;;1.42;0.40;;;23.40;99.90;;;;;;5024080;28;20228;-77
2022/07/07 10:21:50;;;;;;;2.08;0.60;;;23.20;97.90;;;;;;5025519;28;20079;-77
2022/07/07 10:24:17;;;;;;;2.88;0.60;;;23.20;99.60;;;;;;4991073;28;20033;-77
2022/07/07 10:26:56;;;;;;;0.65;0.20;;;23.10;99.70;;;;;;5007294;28;20078;-76
2022/07/07 10:29:40;;;;;;;0.55;0.30;;;22.70;98.30;;;;;;5020290;28;20496;-77
2022/07/07 10:32:16;;;;;;;1.65;0.47;;;22.40;99.90;;;;;;5037100;28;20061;-77
2022/07/07 10:34:50;;;;;;;1.33;0.60;;;21.90;99.90;;;;;;5010882;28;20037;-77
2022/07/07 10:37:15;;;;;;;2.50;0.50;;;21.90;99.80;;;;;;5013199;28;20041;-77
2022/07/07 10:39:44;;;;;;;0.55;0.32;;;21.90;99.90;;;;;;5008753;28;20021;-78
2022/07/07 10:42:15;;;;;;;3.25;0.50;;;22.10;99.90;;;;;;5003480;28;20029;-77
2022/07/07 10:44:46;;;;;;;0.63;0.28;;;22.40;99.90;;;;;;5016611;28;20041;-79
2022/07/07 10:47:12;;;;;;;1.08;0.50;;;22.50;99.20;;;;;;5005157;28;20029;-77
2022/07/07 10:49:44;;;;;;;1.48;1.08;;;23.10;99.40;;;;;;5039197;28;20400;-78
2022/07/07 10:52:17;;;;;;;2.72;0.50;;;23.50;99.20;;;;;;4997575;28;20048;-76
2022/07/07 10:54:49;;;;;;;2.03;0.55;;;24.10;99.90;;;;;;5022156;28;20039;-77
2022/07/07 10:57:19;;;;;;;1.35;0.50;;;24.30;97.60;;;;;;5009986;28;20037;-77
2022/07/07 11:00:15;;;;;;;3.28;0.60;;;24.70;97.10;;;;;;5013058;28;20029;-78
2022/07/07 11:02:47;;;;;;;1.65;0.38;;;24.70;96.80;;;;;;5025374;28;20048;-77
2022/07/07 11:05:12;;;;;;;4.60;0.73;;;25.00;96.40;;;;;;5011370;28;20530;-77
2022/07/07 11:07:39;;;;;;;1.77;0.65;;;25.00;95.20;;;;;;5030392;28;20037;-78
2022/07/07 11:10:09;;;;;;;2.08;0.30;;;24.90;94.00;;;;;;4996333;28;20053;-77
2022/07/07 11:12:48;;;;;;;1.30;0.50;;;24.70;93.40;;;;;;5005850;28;20125;-78
2022/07/07 11:15:22;;;;;;;2.05;0.45;;;24.60;92.30;;;;;;5006307;28;20036;-77
2022/07/07 11:17:48;;;;;;;2.28;0.40;;;24.50;93.70;;;;;;5023260;28;20554;-78
2022/07/07 11:20:15;;;;;;;3.22;0.98;;;24.50;93.90;;;;;;5010014;28;20086;-78
2022/07/07 11:22:47;;;;;;;9.95;1.48;;;24.60;93.60;;;;;;5012746;28;20041;-79
2022/07/07 11:25:14;;;;;;;1.48;0.50;;;24.80;92.40;;;;;;5007887;28;20645;-77
2022/07/07 11:27:39;;;;;;;1.88;0.30;;;24.80;92.60;;;;;;5007361;28;20105;-79
2022/07/07 11:30:05;;;;;;;2.08;0.57;;;24.80;92.50;;;;;;5012387;28;20064;-78
2022/07/07 11:32:38;;;;;;;2.30;0.70;;;24.70;92.70;;;;;;5022903;28;20613;-78
2022/07/07 11:35:13;;;;;;;2.53;0.60;;;24.60;92.60;;;;;;5008671;28;20028;-80
2022/07/07 11:37:39;;;;;;;2.22;1.23;;;24.20;93.00;;;;;;5010373;28;20041;-79
2022/07/07 11:40:12;;;;;;;1.83;0.85;;;23.70;95.00;;;;;;4990691;28;20029;-79
2022/07/07 11:42:38;;;;;;;0.55;0.45;;;23.40;96.00;;;;;;5023379;28;20033;-79
2022/07/07 11:45:04;;;;;;;1.38;0.55;;;23.30;97.00;;;;;;5018794;28;20441;-78
2022/07/07 11:47:33;;;;;;;2.35;0.50;;;23.20;98.10;;;;;;5022395;28;20041;-79
2022/07/07 11:49:59;;;;;;;2.13;0.70;;;23.20;99.20;;;;;;5025112;28;20033;-79
2022/07/07 11:52:25;;;;;;;1.88;0.68;;;23.30;97.40;;;;;;5020641;28;20040;-78
2022/07/07 11:54:50;;;;;;;1.88;0.65;;;23.40;99.50;;;;;;5012064;28;20029;-79
2022/07/07 11:57:32;;;;;;;3.17;0.93;;;23.40;99.50;;;;;;5005545;28;20043;-79
2022/07/07 12:00:09;;;;;;;3.83;0.80;;;23.70;99.70;;;;;;5001522;28;20026;-79
2022/07/07 12:02:34;;;;;;;1.35;0.57;;;23.90;98.10;;;;;;5008184;28;20713;-78
2022/07/07 12:05:00;;;;;;;4.38;0.75;;;23.80;98.40;;;;;;5009226;28;20113;-77
2022/07/07 12:07:26;;;;;;;4.40;0.95;;;23.90;98.40;;;;;;5009834;28;20033;-78
2022/07/07 12:09:52;;;;;;;1.45;0.70;;;23.80;97.90;;;;;;5009063;28;20047;-78
2022/07/07 12:12:18;;;;;;;3.20;0.80;;;23.80;97.80;;;;;;4995793;28;20029;-78
2022/07/07 12:14:45;;;;;;;3.50;0.90;;;23.80;96.40;;;;;;5010448;28;20040;-78
2022/07/07 12:17:10;;;;;;;1.33;0.40;;;23.80;97.60;;;;;;4996616;28;20045;-78
2022/07/07 12:19:48;;;;;;;3.33;0.70;;;23.60;96.40;;;;;;5017345;28;20453;-77
2022/07/07 12:22:30;;;;;;;1.00;0.57;;;23.80;98.70;;;;;;4996731;28;20112;-78
2022/07/07 12:25:01;;;;;;;1.55;0.77;;;23.80;97.00;;;;;;5023366;28;20033;-77
2022/07/07 12:27:26;;;;;;;0.88;0.68;;;24.10;96.50;;;;;;4991293;28;20562;-79
2022/07/07 12:30:04;;;;;;;5.07;1.10;;;24.40;97.50;;;;;;5005524;28;20037;-77
2022/07/07 12:32:30;;;;;;;2.42;0.50;;;24.70;97.50;;;;;;4988486;28;20120;-77
2022/07/07 12:34:55;;;;;;;3.40;0.60;;;25.00;98.00;;;;;;5007416;28;20141;-78
2022/07/07 12:37:21;;;;;;;1.55;0.80;;;25.00;96.70;;;;;;5022493;28;20075;-77
2022/07/07 12:39:52;;;;;;;1.58;0.80;;;25.10;96.30;;;;;;4995756;28;20033;-77
2022/07/07 12:42:24;;;;;;;2.15;0.65;;;24.90;95.50;;;;;;5007212;28;20432;-79
2022/07/07 12:44:50;;;;;;;1.80;0.70;;;25.00;95.60;;;;;;5000120;28;20536;-78
2022/07/07 12:47:16;;;;;;;2.97;0.50;;;24.90;95.20;;;;;;5007294;28;20034;-78
2022/07/07 12:49:54;;;;;;;2.92;0.50;;;25.00;95.50;;;;;;4994034;28;20033;-78
2022/07/07 12:52:20;;;;;;;0.88;0.30;;;24.90;93.60;;;;;;5009991;28;20061;-77